Time;durP1;ratioP1;P1;durP2;ratioP2;P2;SDS_P1;SDS_P2;PMS_P1;PMS_P2;Temp;Humidity;BMP_temperature;BMP_pressure;BME280_temperature;BME280_humidity;BME280_pressure;Samples;Min_cycle;Max_cycle;Signal;HPM_P1;HPM_P2
2021/12/13 00:01:31;;;;;;;;;;;6.60;99.90;;;;;;5073493;28;20024;-67
2021/12/13 00:04:07;;;;;;;14.10;7.43;;;6.70;99.90;;;;;;5073347;28;19912;-67
2021/12/13 00:06:37;;;;;;;20.85;8.27;;;6.70;99.90;;;;;;5072677;28;20023;-67
2021/12/13 00:09:11;;;;;;;13.82;7.10;;;6.60;99.90;;;;;;5073138;28;20024;-67
2021/12/13 00:11:42;;;;;;;14.02;7.28;;;6.60;99.90;;;;;;5072626;28;20056;-67
2021/12/13 00:14:18;;;;;;;61.97;8.88;;;6.70;99.90;;;;;;5073274;28;20104;-67
2021/12/13 00:16:48;;;;;;;15.10;6.70;;;6.70;99.90;;;;;;5073334;28;20025;-67
2021/12/13 00:19:30;;;;;;;20.08;8.02;;;6.70;99.90;;;;;;5072996;28;20021;-67
2021/12/13 00:21:58;;;;;;;16.73;7.50;;;6.60;99.90;;;;;;5072720;28;20040;-67
2021/12/13 00:24:32;;;;;;;18.65;8.30;;;6.60;99.90;;;;;;5072715;28;20399;-67
2021/12/13 00:27:15;;;;;;;52.22;8.25;;;6.70;99.90;;;;;;5073428;28;20032;-67
2021/12/13 00:29:59;;;;;;;14.75;7.22;;;6.60;99.90;;;;;;5073029;28;20025;-67
2021/12/13 00:33:02;;;;;;;16.48;8.00;;;6.60;99.90;;;;;;5072923;28;20365;-67
2021/12/13 00:35:37;;;;;;;26.13;8.25;;;6.60;99.90;;;;;;5072806;28;20388;-67
2021/12/13 00:38:05;;;;;;;18.35;7.78;;;6.60;99.90;;;;;;5072875;28;20020;-67
2021/12/13 00:40:37;;;;;;;20.88;8.45;;;6.60;99.90;;;;;;5072443;28;20029;-67
2021/12/13 00:43:08;;;;;;;55.03;10.10;;;6.60;99.90;;;;;;5072891;28;20033;-67
2021/12/13 00:45:38;;;;;;;42.65;9.98;;;6.70;99.90;;;;;;5072883;28;20103;-67
2021/12/13 00:48:06;;;;;;;80.72;10.90;;;6.70;99.90;;;;;;5072637;28;20476;-67
2021/12/13 00:50:44;;;;;;;43.53;11.10;;;6.70;99.90;;;;;;5072015;28;20036;-67
2021/12/13 00:53:15;;;;;;;214.32;15.50;;;6.70;99.90;;;;;;5072995;28;20032;-67
2021/12/13 00:55:43;;;;;;;101.28;13.02;;;6.80;99.90;;;;;;5073527;28;20460;-67
2021/12/13 00:58:11;;;;;;;223.27;16.55;;;6.80;99.90;;;;;;5073183;28;20074;-67
2021/12/13 01:00:45;;;;;;;41.42;12.50;;;6.80;99.90;;;;;;5073245;28;20024;-67
2021/12/13 01:03:16;;;;;;;138.95;14.55;;;6.80;99.90;;;;;;5072930;28;20032;-67
2021/12/13 01:05:57;;;;;;;111.30;14.13;;;6.90;99.90;;;;;;5072050;28;20028;-67
2021/12/13 01:09:10;;;;;;;55.70;14.40;;;6.90;99.90;;;;;;5072637;28;20017;-67
2021/12/13 01:11:59;;;;;;;53.28;13.30;;;6.90;99.90;;;;;;5072668;28;20028;-67
2021/12/13 01:14:35;;;;;;;40.80;13.68;;;6.90;99.90;;;;;;5072794;28;20107;-67
2021/12/13 01:17:17;;;;;;;178.57;17.05;;;6.90;99.90;;;;;;5072650;28;20024;-67
2021/12/13 01:19:58;;;;;;;277.60;21.65;;;6.90;99.90;;;;;;5073360;28;20029;-67
2021/12/13 01:23:12;;;;;;;294.67;21.67;;;6.90;99.90;;;;;;5075978;28;20092;-67
2021/12/13 01:28:15;;;;;;;288.27;22.10;;;7.00;99.90;;;;;;5075729;28;20024;-67
2021/12/13 01:30:48;;;;;;;64.00;15.10;;;7.00;99.90;;;;;;5076141;28;20025;-67
2021/12/13 01:33:15;;;;;;;104.30;17.52;;;7.00;99.90;;;;;;5076099;28;20099;-67
2021/12/13 01:35:44;;;;;;;51.40;13.90;;;7.00;99.90;;;;;;5075753;28;20075;-67
2021/12/13 01:38:18;;;;;;;101.80;16.88;;;7.00;99.90;;;;;;5075180;28;20043;-67
2021/12/13 01:40:50;;;;;;;53.53;14.77;;;7.00;99.90;;;;;;5075694;28;20032;-67
2021/12/13 01:43:25;;;;;;;42.70;14.57;;;7.00;99.90;;;;;;5075715;28;20074;-67
2021/12/13 01:45:54;;;;;;;41.33;14.40;;;7.10;99.90;;;;;;5074873;28;20024;-67
2021/12/13 01:48:25;;;;;;;70.63;15.50;;;7.10;99.90;;;;;;5075847;28;20448;-67
2021/12/13 01:51:03;;;;;;;43.55;14.68;;;7.10;99.90;;;;;;5075422;28;20025;-67
2021/12/13 01:53:45;;;;;;;42.63;14.90;;;7.10;99.90;;;;;;5075593;28;20024;-67
2021/12/13 01:56:56;;;;;;;83.85;15.68;;;7.10;99.90;;;;;;5075711;28;20024;-67
2021/12/13 02:02:21;;;;;;;49.58;13.70;;;7.20;99.90;;;;;;5074650;28;20021;-67
2021/12/13 02:04:58;;;;;;;37.80;13.55;;;7.20;99.90;;;;;;5075517;28;20021;-67
2021/12/13 02:07:26;;;;;;;38.42;12.75;;;7.30;99.90;;;;;;5075358;28;20090;-67
2021/12/13 02:09:55;;;;;;;40.67;13.88;;;7.30;99.90;;;;;;5075090;28;20492;-67
2021/12/13 02:12:21;;;;;;;33.63;13.15;;;7.30;99.90;;;;;;5074429;28;20056;-67
2021/12/13 02:17:45;;;;;;;33.33;11.00;;;7.30;99.90;;;;;;5075286;28;20495;-67
2021/12/13 02:20:32;;;;;;;27.83;10.95;;;7.30;99.90;;;;;;5075189;28;20036;-67
2021/12/13 02:22:58;;;;;;;23.30;10.30;;;7.30;99.90;;;;;;5074377;28;20013;-67
2021/12/13 02:25:44;;;;;;;27.13;9.52;;;7.30;99.90;;;;;;5074842;28;20031;-67
2021/12/13 02:28:15;;;;;;;21.17;8.70;;;7.30;99.90;;;;;;5074231;28;20025;-67
2021/12/13 02:30:50;;;;;;;24.08;8.85;;;7.30;99.90;;;;;;5074291;28;20020;-67
2021/12/13 02:33:26;;;;;;;23.75;9.40;;;7.40;99.90;;;;;;5074914;28;20056;-67
2021/12/13 02:35:57;;;;;;;22.95;8.27;;;7.40;99.90;;;;;;5073609;28;20035;-67
2021/12/13 02:38:23;;;;;;;25.13;8.68;;;7.40;99.90;;;;;;5074686;28;20029;-67
2021/12/13 02:40:50;;;;;;;25.25;9.00;;;7.40;99.90;;;;;;5073935;28;20120;-67
2021/12/13 02:43:19;;;;;;;59.47;9.85;;;7.40;99.90;;;;;;5074612;28;20029;-67
2021/12/13 02:45:50;;;;;;;46.42;10.73;;;7.50;99.90;;;;;;5056512;28;20073;-67
2021/12/13 02:48:21;;;;;;;30.17;9.75;;;7.50;99.90;;;;;;5073812;28;20078;-67
2021/12/13 02:50:58;;;;;;;32.53;10.48;;;7.40;99.90;;;;;;5074284;28;20099;-67
2021/12/13 02:53:31;;;;;;;189.15;15.05;;;7.40;99.90;;;;;;5074576;28;20031;-67
2021/12/13 02:55:58;;;;;;;82.05;11.80;;;7.40;99.90;;;;;;5073720;28;20027;-67
2021/12/13 02:58:26;;;;;;;20.38;9.18;;;7.40;99.90;;;;;;5074437;28;20111;-67
2021/12/13 03:00:51;;;;;;;21.75;9.50;;;7.50;99.90;;;;;;5073999;28;20557;-67
2021/12/13 03:03:20;;;;;;;19.63;8.57;;;7.50;99.90;;;;;;5074004;28;20040;-67
2021/12/13 03:05:49;;;;;;;21.35;8.65;;;7.50;99.90;;;;;;5073850;28;20496;-67
2021/12/13 03:08:25;;;;;;;16.40;7.80;;;7.50;99.90;;;;;;5073786;28;20032;-67
2021/12/13 03:10:56;;;;;;;31.30;8.20;;;7.50;99.90;;;;;;5055906;28;20024;-67
2021/12/13 03:13:23;;;;;;;25.48;7.28;;;7.50;99.90;;;;;;5073519;28;20020;-67
2021/12/13 03:16:00;;;;;;;19.17;7.68;;;7.50;99.90;;;;;;5055978;28;20029;-67
2021/12/13 03:18:38;;;;;;;23.77;8.77;;;7.40;99.90;;;;;;5074127;28;20024;-67
2021/12/13 03:21:18;;;;;;;16.05;7.32;;;7.40;99.90;;;;;;5073854;28;20094;-67
2021/12/13 03:23:58;;;;;;;20.02;7.60;;;7.50;99.90;;;;;;5074174;28;20108;-67
2021/12/13 03:26:45;;;;;;;265.63;14.65;;;7.50;99.90;;;;;;5073965;28;20042;-67
2021/12/13 03:29:21;;;;;;;21.33;7.40;;;7.40;99.90;;;;;;5073862;28;20067;-67
2021/12/13 03:31:52;;;;;;;16.92;7.22;;;7.40;99.90;;;;;;5073245;28;20029;-67
2021/12/13 03:34:25;;;;;;;80.45;9.73;;;7.50;99.90;;;;;;5073480;28;20024;-67
2021/12/13 03:37:11;;;;;;;89.70;12.55;;;7.50;99.90;;;;;;5073436;28;20035;-67
2021/12/13 03:39:41;;;;;;;119.65;10.85;;;7.50;99.90;;;;;;5063090;28;20431;-67
2021/12/13 03:42:12;;;;;;;47.25;11.00;;;7.50;99.90;;;;;;5052619;28;20472;-67
2021/12/13 03:44:47;;;;;;;55.53;10.48;;;7.60;99.90;;;;;;5067899;28;20104;-67
2021/12/13 03:47:18;;;;;;;58.05;11.02;;;7.60;99.90;;;;;;5073625;28;20074;-67
2021/12/13 03:49:49;;;;;;;43.97;10.77;;;7.60;99.90;;;;;;5066366;28;20086;-67
2021/12/13 03:52:20;;;;;;;71.60;12.55;;;7.60;99.90;;;;;;5053274;28;20035;-67
2021/12/13 03:54:46;;;;;;;38.95;11.52;;;7.60;99.90;;;;;;5053011;28;20124;-67
2021/12/13 03:57:14;;;;;;;52.95;11.85;;;7.70;99.90;;;;;;5053426;28;20033;-67
2021/12/13 03:59:43;;;;;;;51.90;11.10;;;7.70;99.90;;;;;;5053531;28;20051;-67
2021/12/13 04:02:28;;;;;;;80.68;12.73;;;7.70;99.90;;;;;;5052159;28;20021;-67
2021/12/13 04:04:59;;;;;;;45.63;12.65;;;7.70;99.90;;;;;;5065444;28;20387;-67
2021/12/13 04:07:34;;;;;;;45.08;11.52;;;7.70;99.90;;;;;;5072077;28;20059;-67
2021/12/13 04:10:12;;;;;;;97.93;14.75;;;7.70;99.90;;;;;;5068937;28;20024;-67
2021/12/13 04:12:46;;;;;;;172.27;15.40;;;7.70;99.90;;;;;;5053041;28;20365;-67
2021/12/13 04:15:34;;;;;;;96.57;13.20;;;7.70;99.90;;;;;;5054657;28;20115;-67
2021/12/13 04:18:27;;;;;;;180.30;15.10;;;7.70;99.90;;;;;;5053510;28;20051;-67
2021/12/13 04:21:05;;;;;;;131.48;14.15;;;7.70;99.90;;;;;;5053118;28;20536;-67
2021/12/13 04:23:32;;;;;;;44.88;10.80;;;7.80;99.90;;;;;;5069590;28;20024;-67
2021/12/13 04:25:59;;;;;;;33.75;10.60;;;7.70;99.90;;;;;;5072425;28;20020;-67
2021/12/13 04:28:33;;;;;;;235.20;16.67;;;7.80;99.90;;;;;;5072860;28;20482;-67
2021/12/13 04:31:05;;;;;;;133.02;13.57;;;7.80;99.90;;;;;;5072911;28;20115;-67
2021/12/13 04:33:37;;;;;;;158.73;17.15;;;7.80;99.90;;;;;;5072930;28;20020;-67
2021/12/13 04:36:07;;;;;;;160.05;19.95;;;7.90;99.90;;;;;;5072813;28;20507;-67
2021/12/13 04:38:59;;;;;;;111.00;18.73;;;7.90;99.90;;;;;;5072899;28;20033;-67
2021/12/13 04:41:34;;;;;;;318.75;26.02;;;8.00;99.90;;;;;;5072799;28;20029;-67
2021/12/13 04:44:08;;;;;;;170.93;21.30;;;8.00;99.90;;;;;;5072832;28;20017;-67
2021/12/13 04:46:36;;;;;;;244.95;25.35;;;8.00;99.90;;;;;;5072763;28;20028;-67
2021/12/13 04:49:08;;;;;;;203.30;23.40;;;8.00;99.90;;;;;;5073047;28;20387;-67
2021/12/13 04:52:04;;;;;;;149.02;25.73;;;8.00;99.90;;;;;;5072087;28;20482;-67
2021/12/13 04:54:33;;;;;;;124.95;25.20;;;8.00;99.90;;;;;;5074078;28;20106;-67
2021/12/13 04:57:00;;;;;;;112.97;24.70;;;8.00;99.90;;;;;;5076604;28;20048;-67
2021/12/13 04:59:29;;;;;;;163.95;27.73;;;8.00;99.90;;;;;;5076336;28;20028;-67
2021/12/13 05:01:59;;;;;;;128.63;26.50;;;8.00;99.90;;;;;;5076352;28;20116;-67
2021/12/13 05:04:27;;;;;;;124.60;24.90;;;8.00;99.90;;;;;;5076341;28;20021;-67
2021/12/13 05:06:54;;;;;;;144.57;25.70;;;8.00;99.90;;;;;;5075806;28;20020;-67
2021/12/13 05:09:22;;;;;;;134.40;27.05;;;8.00;99.90;;;;;;5076219;28;20100;-67
2021/12/13 05:12:07;;;;;;;202.93;31.23;;;8.10;99.90;;;;;;5076605;28;20384;-67
2021/12/13 05:14:40;;;;;;;116.78;26.50;;;8.10;99.90;;;;;;5076415;28;20391;-67
2021/12/13 05:17:18;;;;;;;109.72;26.90;;;8.10;99.90;;;;;;5076450;28;20029;-67
2021/12/13 05:19:58;;;;;;;122.65;25.42;;;8.10;99.90;;;;;;5075562;28;20051;-67
2021/12/13 05:22:24;;;;;;;143.32;24.40;;;8.20;99.90;;;;;;5076084;28;20443;-67
2021/12/13 05:25:01;;;;;;;95.70;23.42;;;8.20;99.90;;;;;;5075985;28;20107;-67
2021/12/13 05:27:36;;;;;;;120.43;23.38;;;8.20;99.90;;;;;;5076172;28;20029;-67
2021/12/13 05:30:21;;;;;;;101.32;22.10;;;8.20;99.90;;;;;;5074981;28;20047;-67
2021/12/13 05:32:56;;;;;;;116.20;23.02;;;8.20;99.90;;;;;;5075818;28;20029;-67
2021/12/13 05:35:44;;;;;;;88.35;20.77;;;8.10;99.90;;;;;;5075748;28;20542;-67
2021/12/13 05:38:27;;;;;;;105.50;22.40;;;8.10;99.90;;;;;;5076081;28;20510;-67
2021/12/13 05:40:53;;;;;;;135.48;23.58;;;8.10;99.90;;;;;;5074925;28;20472;-67
2021/12/13 05:43:29;;;;;;;101.70;23.38;;;8.00;99.90;;;;;;5120305;22;20047;-67
2021/12/13 05:46:03;;;;;;;105.10;22.63;;;8.00;99.90;;;;;;5095850;28;20061;-67
2021/12/13 05:48:34;;;;;;;124.43;25.02;;;8.00;99.90;;;;;;5095403;28;20106;-67
2021/12/13 05:51:17;;;;;;;136.85;24.35;;;8.00;99.90;;;;;;5096055;28;20017;-67
2021/12/13 05:53:52;;;;;;;102.35;21.70;;;7.90;99.90;;;;;;5095532;28;20399;-67
2021/12/13 05:56:18;;;;;;;142.18;26.00;;;7.90;99.90;;;;;;5095938;28;20024;-67
2021/12/13 05:58:53;;;;;;;154.65;26.48;;;7.90;99.90;;;;;;5094969;28;20120;-67
2021/12/13 06:01:29;;;;;;;138.20;26.08;;;7.90;99.90;;;;;;5095868;28;20027;-67
2021/12/13 06:04:21;;;;;;;158.30;27.00;;;7.90;99.90;;;;;;5095706;28;20031;-67
2021/12/13 06:06:51;;;;;;;102.57;24.63;;;7.90;99.90;;;;;;5095480;28;20020;-67
2021/12/13 06:09:39;;;;;;;138.55;25.30;;;7.90;99.90;;;;;;5095253;28;20114;-67
2021/12/13 06:12:12;;;;;;;146.23;27.95;;;8.00;99.90;;;;;;5110665;28;20061;-67
2021/12/13 06:14:38;;;;;;;131.53;26.60;;;7.90;99.90;;;;;;5085861;28;20060;-67
2021/12/13 06:17:18;;;;;;;140.02;24.40;;;8.00;99.90;;;;;;5075573;28;20298;-67
2021/12/13 06:19:59;;;;;;;150.82;25.98;;;7.90;99.90;;;;;;5074317;28;20024;-67
2021/12/13 06:22:28;;;;;;;177.15;28.17;;;7.90;99.90;;;;;;5075131;28;20020;-67
2021/12/13 06:25:06;;;;;;;147.73;25.60;;;7.90;99.90;;;;;;5074809;28;20503;-67
2021/12/13 06:27:51;;;;;;;137.35;26.73;;;7.90;99.90;;;;;;5075095;28;20020;-67
2021/12/13 06:30:16;;;;;;;129.48;25.52;;;8.00;99.90;;;;;;5074722;28;20024;-67
2021/12/13 06:32:53;;;;;;;130.82;25.52;;;8.10;99.90;;;;;;5075198;28;20032;-67
2021/12/13 06:35:44;;;;;;;115.78;24.58;;;8.10;99.90;;;;;;5074877;28;20024;-67
2021/12/13 06:38:18;;;;;;;157.25;30.85;;;8.10;99.90;;;;;;5074778;28;20031;-67
2021/12/13 06:41:03;;;;;;;148.85;26.98;;;8.10;99.90;;;;;;5074240;28;20055;-67
2021/12/13 06:43:57;;;;;;;168.40;31.83;;;8.10;99.90;;;;;;5074447;28;20451;-67
2021/12/13 06:46:23;;;;;;;131.75;26.70;;;8.10;99.90;;;;;;5069384;28;20062;-67
2021/12/13 06:49:19;;;;;;;136.15;27.95;;;8.00;99.90;;;;;;5074564;28;20031;-67
2021/12/13 06:51:49;;;;;;;108.25;25.80;;;8.00;99.90;;;;;;5074041;28;20023;-67
2021/12/13 06:54:20;;;;;;;111.20;24.38;;;8.00;99.90;;;;;;5074550;28;20027;-67
2021/12/13 06:56:54;;;;;;;154.48;30.98;;;8.00;99.90;;;;;;5074136;28;20383;-67
2021/12/13 06:59:20;;;;;;;134.32;27.73;;;7.90;99.90;;;;;;5074395;28;20020;-67
2021/12/13 07:01:58;;;;;;;115.95;25.48;;;7.90;99.90;;;;;;5073494;28;20108;-67
2021/12/13 07:04:24;;;;;;;132.27;27.02;;;7.90;99.90;;;;;;5093892;28;20028;-67
2021/12/13 07:06:50;;;;;;;118.13;25.50;;;8.00;99.90;;;;;;5094305;28;20034;-67
2021/12/13 07:09:24;;;;;;;118.90;23.90;;;8.10;99.90;;;;;;5089087;28;20028;-67
2021/12/13 07:11:57;;;;;;;135.95;28.15;;;8.00;99.90;;;;;;5094213;28;20031;-67
2021/12/13 07:14:38;;;;;;;119.20;27.88;;;8.10;99.90;;;;;;5094431;28;20035;-67
2021/12/13 07:17:22;;;;;;;109.70;27.35;;;8.20;99.90;;;;;;5080657;28;20029;-67
2021/12/13 07:19:49;;;;;;;;;;;8.30;99.90;;;;;;5073618;28;20141;-67
2021/12/13 07:22:24;;;;;;;125.60;31.92;;;8.30;99.90;;;;;;5073637;28;20344;-67
2021/12/13 07:25:11;;;;;;;122.90;31.48;;;8.30;99.90;;;;;;5073324;28;20074;-67
2021/12/13 07:27:44;;;;;;;147.68;36.53;;;8.30;99.90;;;;;;5074908;28;20035;-67
2021/12/13 07:30:22;;;;;;;162.65;35.63;;;8.40;99.90;;;;;;5073989;28;20086;-67
2021/12/13 07:32:57;;;;;;;150.85;33.97;;;8.50;99.90;;;;;;5073646;28;20115;-67
2021/12/13 07:35:34;;;;;;;113.72;32.80;;;8.40;99.90;;;;;;5091168;28;20514;-67
2021/12/13 07:38:11;;;;;;;138.90;34.08;;;8.40;99.90;;;;;;5091813;28;20064;-67
2021/12/13 07:40:57;;;;;;;143.50;33.55;;;8.40;99.90;;;;;;5093662;28;20111;-67
2021/12/13 07:43:29;;;;;;;180.38;36.88;;;8.50;99.90;;;;;;5088881;28;20106;-67
2021/12/13 07:46:05;;;;;;;153.93;35.35;;;8.50;99.90;;;;;;5093923;28;20027;-67
2021/12/13 07:48:43;;;;;;;176.93;39.17;;;8.50;99.90;;;;;;5091054;28;20040;-67
2021/12/13 07:51:36;;;;;;;161.35;37.47;;;8.50;99.90;;;;;;5093523;28;20025;-67
2021/12/13 07:54:14;;;;;;;191.30;41.50;;;8.60;99.90;;;;;;5087513;28;20016;-67
2021/12/13 07:56:56;;;;;;;172.40;38.17;;;8.60;99.90;;;;;;5093454;28;20028;-67
2021/12/13 07:59:34;;;;;;;147.82;34.85;;;8.70;99.90;;;;;;5063743;28;20024;-67
2021/12/13 08:02:26;;;;;;;157.93;34.78;;;8.70;99.90;;;;;;5072582;28;20032;-67
2021/12/13 08:05:08;;;;;;;188.32;37.60;;;8.70;99.90;;;;;;5085854;28;20020;-67
2021/12/13 08:07:47;;;;;;;168.18;34.67;;;8.70;99.90;;;;;;5093615;28;20020;-67
2021/12/13 08:10:29;;;;;;;144.30;34.15;;;8.70;99.90;;;;;;5093098;28;20028;-67
2021/12/13 08:13:03;;;;;;;176.45;34.30;;;8.70;99.90;;;;;;5093480;28;20379;-67
2021/12/13 08:15:57;;;;;;;166.07;35.90;;;8.70;99.90;;;;;;5075334;28;20027;-67
2021/12/13 08:18:43;;;;;;;148.13;31.27;;;8.70;99.90;;;;;;5083283;28;20104;-67
2021/12/13 08:21:26;;;;;;;158.55;32.80;;;8.70;99.90;;;;;;5072984;28;20494;-68
2021/12/13 08:24:02;;;;;;;148.68;32.00;;;8.60;99.90;;;;;;5073788;28;20024;-67
2021/12/13 08:26:34;;;;;;;134.13;31.15;;;8.60;99.90;;;;;;5073520;28;20452;-67
2021/12/13 08:29:02;;;;;;;163.65;32.67;;;8.50;99.90;;;;;;5077100;28;20032;-68
2021/12/13 08:31:32;;;;;;;133.95;29.98;;;8.60;99.90;;;;;;5076990;28;20138;-67
2021/12/13 08:34:02;;;;;;;125.80;30.02;;;8.60;99.90;;;;;;5082316;28;20055;-68
2021/12/13 08:36:30;;;;;;;109.90;28.45;;;8.50;99.90;;;;;;5094421;28;20032;-68
2021/12/13 08:39:14;;;;;;;125.82;30.67;;;8.50;99.90;;;;;;5092475;28;20020;-68
2021/12/13 08:41:45;;;;;;;117.47;26.05;;;8.60;99.90;;;;;;5097215;28;20471;-67
2021/12/13 08:44:10;;;;;;;111.75;27.88;;;8.60;99.90;;;;;;5097355;28;20566;-67
2021/12/13 08:46:55;;;;;;;97.07;27.83;;;8.60;99.90;;;;;;5096463;28;20099;-67
2021/12/13 08:49:29;;;;;;;108.53;25.42;;;8.60;99.90;;;;;;5088680;28;20025;-67
2021/12/13 08:52:11;;;;;;;108.28;25.95;;;8.60;99.90;;;;;;5076861;28;20067;-67
2021/12/13 08:54:45;;;;;;;103.78;25.98;;;8.60;99.90;;;;;;5076888;28;20033;-67
2021/12/13 08:57:33;;;;;;;77.95;21.70;;;8.70;99.90;;;;;;5076645;28;20028;-67
2021/12/13 09:00:05;;;;;;;96.82;22.77;;;8.70;99.90;;;;;;5034815;28;20088;-67
2021/12/13 09:02:37;;;;;;;92.60;22.15;;;8.70;99.90;;;;;;5076661;28;20036;-67
2021/12/13 09:05:11;;;;;;;81.53;20.23;;;8.70;99.90;;;;;;5076417;28;20025;-67
2021/12/13 09:08:06;;;;;;;73.18;18.58;;;8.70;99.90;;;;;;5076553;28;20029;-68
2021/12/13 09:10:49;;;;;;;109.88;21.98;;;8.80;99.90;;;;;;5062190;28;20028;-67
2021/12/13 09:13:19;;;;;;;76.87;18.80;;;8.80;99.90;;;;;;5075558;28;20036;-68
2021/12/13 09:15:48;;;;;;;89.18;20.00;;;8.80;99.90;;;;;;5076164;28;20024;-67
2021/12/13 09:18:20;;;;;;;63.90;19.83;;;8.90;99.90;;;;;;5076438;28;20099;-67
2021/12/13 09:20:56;;;;;;;76.50;20.88;;;8.90;99.90;;;;;;5075449;28;20060;-67
2021/12/13 09:23:29;;;;;;;66.90;17.95;;;8.90;99.90;;;;;;5075944;28;20108;-67
2021/12/13 09:26:14;;;;;;;72.05;19.80;;;8.90;99.90;;;;;;5076223;28;20024;-67
2021/12/13 09:29:04;;;;;;;58.70;18.65;;;8.90;99.90;;;;;;5075399;28;20023;-68
2021/12/13 09:31:35;;;;;;;61.97;17.52;;;8.90;99.90;;;;;;5076132;28;20060;-67
2021/12/13 09:34:24;;;;;;;65.00;17.65;;;8.90;99.90;;;;;;5076351;28;20021;-67
2021/12/13 09:36:54;;;;;;;50.38;17.25;;;8.90;99.90;;;;;;5076334;28;20108;-67
2021/12/13 09:39:27;;;;;;;53.42;17.92;;;8.90;99.90;;;;;;5076278;28;20518;-67
2021/12/13 09:42:01;;;;;;;56.90;17.50;;;8.90;99.90;;;;;;5074488;28;20075;-67
2021/12/13 09:44:33;;;;;;;;;;;9.00;99.90;;;;;;5076049;28;20422;-67
2021/12/13 09:47:11;;;;;;;60.10;16.88;;;9.00;99.90;;;;;;5076192;28;19991;-67
2021/12/13 09:49:45;;;;;;;71.32;16.48;;;9.00;99.90;;;;;;5075551;28;20475;-67
2021/12/13 09:52:10;;;;;;;53.50;17.27;;;9.00;99.90;;;;;;5075200;28;20446;-67
2021/12/13 09:54:41;;;;;;;70.90;16.33;;;9.00;99.90;;;;;;5075203;28;20024;-67
2021/12/13 09:57:12;;;;;;;65.47;17.27;;;9.00;99.90;;;;;;5078266;28;20369;-67
2021/12/13 09:59:42;;;;;;;52.17;15.90;;;9.00;99.90;;;;;;5096778;28;20063;-67
2021/12/13 10:02:15;;;;;;;47.20;16.10;;;9.00;99.90;;;;;;5095272;28;20483;-67
2021/12/13 10:04:42;;;;;;;53.60;17.40;;;9.00;99.90;;;;;;5095846;28;20031;-67
2021/12/13 10:07:29;;;;;;;59.92;16.50;;;9.10;99.90;;;;;;5095750;28;20031;-67
2021/12/13 10:10:06;;;;;;;53.13;13.98;;;9.10;99.90;;;;;;5095403;28;20040;-68
2021/12/13 10:12:41;;;;;;;47.05;14.98;;;9.10;99.90;;;;;;5077216;28;20024;-68
2021/12/13 10:15:19;;;;;;;47.78;14.60;;;9.10;99.90;;;;;;5079761;28;20036;-68
2021/12/13 10:17:48;;;;;;;42.90;16.85;;;9.20;99.90;;;;;;5075370;28;20082;-68
2021/12/13 10:20:21;;;;;;;42.80;14.52;;;9.10;99.90;;;;;;5075036;28;20021;-68
2021/12/13 10:22:47;;;;;;;46.90;14.10;;;9.20;99.90;;;;;;5074879;28;20032;-68
2021/12/13 10:25:29;;;;;;;44.67;14.07;;;9.20;99.90;;;;;;5074957;28;20494;-68
2021/12/13 10:27:55;;;;;;;40.38;13.23;;;9.20;99.90;;;;;;5074531;28;20031;-68
2021/12/13 10:30:36;;;;;;;46.53;13.77;;;9.20;99.90;;;;;;5075052;28;20021;-68
2021/12/13 10:33:04;;;;;;;38.67;12.65;;;9.30;99.90;;;;;;5074723;28;20131;-68
2021/12/13 10:35:37;;;;;;;38.65;14.00;;;9.30;99.90;;;;;;5074692;28;20388;-68
2021/12/13 10:38:09;;;;;;;37.00;12.00;;;9.30;99.90;;;;;;5074846;28;20024;-67
2021/12/13 10:40:48;;;;;;;36.72;12.57;;;9.30;99.90;;;;;;5074071;28;20028;-67
2021/12/13 10:43:20;;;;;;;41.80;12.18;;;9.30;99.90;;;;;;5074290;28;20115;-69
2021/12/13 10:45:54;;;;;;;37.55;13.10;;;9.30;99.90;;;;;;5074478;28;20567;-67
2021/12/13 10:48:25;;;;;;;33.50;14.13;;;9.20;99.90;;;;;;5074720;28;20035;-67
2021/12/13 10:50:56;;;;;;;37.47;11.50;;;9.30;99.90;;;;;;5073904;28;20120;-67
2021/12/13 10:53:24;;;;;;;44.17;12.85;;;9.30;99.90;;;;;;5073057;28;20487;-67
2021/12/13 10:56:01;;;;;;;42.97;12.45;;;9.40;99.90;;;;;;5074200;28;20032;-67
2021/12/13 10:58:34;;;;;;;32.03;12.38;;;9.50;99.90;;;;;;5074283;28;20059;-67
2021/12/13 11:01:10;;;;;;;31.50;11.65;;;9.50;99.90;;;;;;5074114;28;20025;-67
2021/12/13 11:03:39;;;;;;;38.88;12.07;;;9.50;99.90;;;;;;5073541;28;20417;-67
2021/12/13 11:06:08;;;;;;;35.13;12.88;;;9.60;99.90;;;;;;5074460;28;20036;-67
2021/12/13 11:08:34;;;;;;;43.47;12.43;;;9.60;99.90;;;;;;5074292;28;20024;-67
2021/12/13 11:11:06;;;;;;;34.85;12.35;;;9.60;99.90;;;;;;5074015;28;20055;-67
2021/12/13 11:13:35;;;;;;;41.28;11.25;;;9.50;99.90;;;;;;5073957;28;20025;-67
2021/12/13 11:16:10;;;;;;;29.50;13.00;;;9.50;99.90;;;;;;5073369;28;20025;-67
2021/12/13 11:18:36;;;;;;;37.60;13.60;;;9.30;99.90;;;;;;5073557;28;20035;-66
2021/12/13 11:21:12;;;;;;;34.25;13.45;;;9.20;99.90;;;;;;5081009;28;20118;-67
2021/12/13 11:23:39;;;;;;;35.22;13.35;;;9.00;99.90;;;;;;5082130;28;20096;-67
2021/12/13 11:26:09;;;;;;;40.20;12.30;;;8.90;99.90;;;;;;5074068;28;20028;-66
2021/12/13 11:28:36;;;;;;;37.78;12.02;;;8.90;99.90;;;;;;5079740;28;20016;-68
2021/12/13 11:31:34;;;;;;;37.38;13.43;;;8.90;99.90;;;;;;5081129;28;20392;-68
2021/12/13 11:34:01;;;;;;;34.30;12.73;;;8.90;99.90;;;;;;5062139;28;20025;-67
2021/12/13 11:36:45;;;;;;;38.30;12.80;;;8.90;99.90;;;;;;5084143;28;20028;-67
2021/12/13 11:39:56;;;;;;;53.83;14.68;;;8.90;99.90;;;;;;5082782;28;20453;-68
2021/12/13 11:42:52;;;;;;;43.17;13.45;;;8.90;99.90;;;;;;5104154;22;20046;-72
2021/12/13 11:45:42;;;;;;;45.67;13.05;;;8.90;99.90;;;;;;5052396;28;20031;-71
2021/12/13 11:48:32;;;;;;;37.20;14.77;;;8.90;99.90;;;;;;5052148;28;20060;-76
2021/12/13 11:51:09;;;;;;;40.08;12.93;;;8.90;99.90;;;;;;5025839;28;20566;-76
2021/12/13 11:53:45;;;;;;;43.50;13.35;;;8.90;99.90;;;;;;5053044;28;20107;-76
2021/12/13 11:56:26;;;;;;;45.85;14.80;;;8.90;99.90;;;;;;5052331;28;20033;-75
2021/12/13 11:59:22;;;;;;;39.50;12.02;;;8.90;99.90;;;;;;5052083;28;20052;-74
2021/12/13 12:02:03;;;;;;;35.65;11.75;;;8.90;99.90;;;;;;5051896;28;20032;-73
2021/12/13 12:05:06;;;;;;;56.42;14.13;;;9.00;99.90;;;;;;5046695;28;20430;-74
2021/12/13 12:08:01;;;;;;;46.45;14.38;;;9.00;99.90;;;;;;5047692;28;20021;-74
2021/12/13 12:10:52;;;;;;;33.10;13.45;;;9.00;99.90;;;;;;5046500;28;20496;-74
2021/12/13 12:13:42;;;;;;;43.70;13.70;;;9.00;99.90;;;;;;5045324;28;20043;-74
2021/12/13 12:16:08;;;;;;;31.02;13.23;;;9.00;99.90;;;;;;5021569;28;20032;-74
2021/12/13 12:18:38;;;;;;;40.47;14.60;;;9.00;99.90;;;;;;5049238;28;20037;-74
2021/12/13 12:21:31;;;;;;;33.05;13.68;;;9.00;99.90;;;;;;5052159;28;20116;-75
2021/12/13 12:24:03;;;;;;;46.10;14.52;;;9.00;99.90;;;;;;5049373;28;20025;-70
2021/12/13 12:26:30;;;;;;;48.03;14.45;;;9.00;99.90;;;;;;5052700;28;20029;-69
2021/12/13 12:28:58;;;;;;;42.90;13.65;;;9.00;99.90;;;;;;5052913;28;20527;-70
2021/12/13 12:31:40;;;;;;;43.60;15.68;;;8.90;99.90;;;;;;5052847;28;20075;-70
2021/12/13 12:34:07;;;;;;;48.90;14.10;;;9.00;99.90;;;;;;5052263;28;20043;-70
2021/12/13 12:37:05;;;;;;;45.30;15.35;;;8.90;99.90;;;;;;5052810;28;20021;-70
2021/12/13 12:39:39;;;;;;;39.60;14.18;;;8.90;99.90;;;;;;5052688;28;20061;-70
2021/12/13 12:42:23;;;;;;;34.83;14.40;;;8.90;99.90;;;;;;5052210;28;20032;-69
2021/12/13 12:44:54;;;;;;;;;;;8.90;99.90;;;;;;5053883;28;20396;-69
2021/12/13 12:47:34;;;;;;;46.15;14.18;;;8.90;99.90;;;;;;5052695;28;19905;-70
2021/12/13 12:50:18;;;;;;;46.45;15.02;;;8.80;99.90;;;;;;5052271;28;20104;-70
2021/12/13 12:53:00;;;;;;;53.22;16.63;;;8.90;99.90;;;;;;5052862;28;20033;-70
2021/12/13 12:55:30;;;;;;;47.67;15.55;;;8.90;99.90;;;;;;5034769;28;20071;-70
2021/12/13 12:57:57;;;;;;;41.00;14.70;;;8.90;99.90;;;;;;5052695;28;20021;-70
2021/12/13 13:00:29;;;;;;;37.53;14.95;;;8.90;99.90;;;;;;5052611;28;20033;-70
2021/12/13 13:02:55;;;;;;;42.22;14.82;;;8.90;99.90;;;;;;5052050;28;20021;-70
2021/12/13 13:05:26;;;;;;;46.63;15.32;;;8.90;99.90;;;;;;5052598;28;20407;-70
2021/12/13 13:07:53;;;;;;;33.70;15.30;;;8.90;99.90;;;;;;5052883;28;20017;-70
2021/12/13 13:12:50;;;;;;;38.53;16.35;;;8.90;99.90;;;;;;5052742;28;20033;-70
2021/12/13 13:15:25;;;;;;;48.42;15.77;;;8.90;99.90;;;;;;5053356;28;20040;-70
2021/12/13 13:17:58;;;;;;;41.40;16.05;;;8.90;99.90;;;;;;5056818;28;20033;-70
2021/12/13 13:20:29;;;;;;;49.05;17.30;;;8.90;99.90;;;;;;5055590;28;20447;-70
2021/12/13 13:22:57;;;;;;;51.15;16.02;;;8.90;99.90;;;;;;5056370;28;20021;-70
2021/12/13 13:25:39;;;;;;;40.45;15.88;;;8.90;99.90;;;;;;5056025;28;20025;-71
2021/12/13 13:28:19;;;;;;;39.45;13.82;;;8.90;99.90;;;;;;5056332;28;20021;-70
2021/12/13 13:30:51;;;;;;;45.92;15.95;;;8.90;99.90;;;;;;5055967;28;20060;-70